createdAt,value
2018-11-13T00:01:53.351Z,14.60
2018-11-13T00:04:21.844Z,14.40
2018-11-13T00:06:50.284Z,14.40
2018-11-13T00:09:18.696Z,14.30
2018-11-13T00:11:47.323Z,14.30
2018-11-13T00:14:15.763Z,14.20
2018-11-13T00:16:44.230Z,14.10
2018-11-13T00:19:12.668Z,14.10
2018-11-13T00:21:41.123Z,13.90
2018-11-13T00:24:09.856Z,13.80
2018-11-13T00:26:38.030Z,13.90
2018-11-13T00:29:06.492Z,13.90
2018-11-13T00:31:34.964Z,14.00
2018-11-13T00:34:03.441Z,13.90
2018-11-13T00:36:31.912Z,14.00
2018-11-13T00:39:00.364Z,14.10
2018-11-13T00:41:28.772Z,14.10
2018-11-13T00:43:57.207Z,14.00
2018-11-13T00:46:25.676Z,13.80
2018-11-13T00:48:54.105Z,13.90
2018-11-13T00:51:22.551Z,13.90
2018-11-13T00:53:51.110Z,13.90
2018-11-13T00:56:19.601Z,13.90
2018-11-13T00:58:48.001Z,14.00
2018-11-13T01:01:16.411Z,14.00
2018-11-13T01:03:44.836Z,13.80
2018-11-13T01:06:13.273Z,13.90
2018-11-13T01:08:45.789Z,13.80
2018-11-13T01:11:14.234Z,13.70
2018-11-13T01:13:42.756Z,13.70
2018-11-13T01:16:11.152Z,13.90
2018-11-13T01:18:39.570Z,14.00
2018-11-13T01:21:08.023Z,14.10
2018-11-13T01:23:36.455Z,14.30
2018-11-13T01:26:05.323Z,14.40
2018-11-13T01:28:33.739Z,14.50
2018-11-13T01:31:02.188Z,14.30
2018-11-13T01:33:30.635Z,14.40
2018-11-13T01:35:59.085Z,14.50
2018-11-13T01:38:27.500Z,14.50
2018-11-13T01:40:55.926Z,14.60
2018-11-13T01:43:24.352Z,14.40
2018-11-13T01:45:52.796Z,14.30
2018-11-13T01:48:21.245Z,14.20
2018-11-13T01:50:49.657Z,14.40
2018-11-13T01:53:18.117Z,14.30
2018-11-13T01:55:46.567Z,13.80
2018-11-13T01:58:15.000Z,14.00
2018-11-13T02:00:43.522Z,14.00
2018-11-13T02:03:12.004Z,13.80
2018-11-13T02:05:40.460Z,13.70
2018-11-13T02:08:08.984Z,13.70
2018-11-13T02:10:37.452Z,13.60
2018-11-13T02:13:06.572Z,13.70
2018-11-13T02:15:35.040Z,13.90
2018-11-13T02:18:05.694Z,13.90
2018-11-13T02:20:34.170Z,14.00
2018-11-13T02:23:02.625Z,13.90
2018-11-13T02:25:31.078Z,14.00
2018-11-13T02:27:59.551Z,14.00
2018-11-13T02:30:28.011Z,14.10
2018-11-13T02:32:56.501Z,14.20
2018-11-13T02:35:25.000Z,14.00
2018-11-13T02:37:53.439Z,14.10
2018-11-13T02:40:21.946Z,14.10
2018-11-13T02:42:50.478Z,14.10
2018-11-13T02:45:19.835Z,14.00
2018-11-13T02:47:48.351Z,14.20
2018-11-13T02:50:18.049Z,14.30
2018-11-13T02:52:46.565Z,14.10
2018-11-13T02:55:15.203Z,14.30
2018-11-13T02:57:44.293Z,14.30
2018-11-13T03:00:20.280Z,14.30
2018-11-13T03:02:48.772Z,14.20
2018-11-13T03:05:18.315Z,14.10
2018-11-13T03:07:46.799Z,14.10
2018-11-13T03:10:16.412Z,14.20
2018-11-13T03:12:44.980Z,14.20
2018-11-13T03:15:14.610Z,14.20
2018-11-13T03:17:43.223Z,14.20
2018-11-13T03:20:14.675Z,14.10
2018-11-13T03:22:43.765Z,14.10
2018-11-13T03:25:14.258Z,14.10
2018-11-13T03:27:42.684Z,14.10
2018-11-13T03:30:15.124Z,14.20
2018-11-13T03:32:43.598Z,14.20
2018-11-13T03:35:12.227Z,14.10
2018-11-13T03:37:40.755Z,14.10
2018-11-13T03:40:10.025Z,14.20
2018-11-13T03:42:38.588Z,14.20
2018-11-13T03:45:07.947Z,14.20
2018-11-13T03:47:36.456Z,14.20
2018-11-13T03:50:05.866Z,14.20
2018-11-13T03:52:34.375Z,14.20
2018-11-13T03:55:02.879Z,13.90
2018-11-13T03:57:31.469Z,13.60
2018-11-13T04:00:00.072Z,13.40
2018-11-13T04:02:28.557Z,13.40
2018-11-13T04:04:57.084Z,13.20
2018-11-13T04:07:25.539Z,13.00
2018-11-13T04:09:54.037Z,13.30
2018-11-13T04:12:22.489Z,13.50
2018-11-13T04:14:50.925Z,13.50
2018-11-13T04:17:19.399Z,13.60
2018-11-13T04:19:47.845Z,13.70
2018-11-13T04:22:16.278Z,13.70
2018-11-13T04:24:44.699Z,13.50
2018-11-13T04:27:13.206Z,13.50
2018-11-13T04:29:41.629Z,13.60
2018-11-13T04:32:10.127Z,13.60
2018-11-13T04:34:38.651Z,13.60
2018-11-13T04:37:07.076Z,13.60
2018-11-13T04:39:35.639Z,13.40
2018-11-13T04:42:04.173Z,13.40
2018-11-13T04:44:32.668Z,13.40
2018-11-13T04:47:01.335Z,13.50
2018-11-13T04:49:29.813Z,13.60
2018-11-13T04:51:58.228Z,13.40
2018-11-13T04:54:26.831Z,13.60
2018-11-13T04:56:55.470Z,13.70
2018-11-13T04:59:23.964Z,13.60
2018-11-13T05:01:52.683Z,13.30
2018-11-13T05:04:21.117Z,13.20
2018-11-13T05:06:49.907Z,13.30
2018-11-13T05:09:18.469Z,13.40
2018-11-13T05:11:47.085Z,13.40
2018-11-13T05:14:15.573Z,13.30
2018-11-13T05:19:47.245Z,13.30
2018-11-13T05:22:15.704Z,13.20
2018-11-13T05:24:44.387Z,13.00
2018-11-13T05:27:12.927Z,13.10
2018-11-13T05:29:41.366Z,13.10
2018-11-13T05:32:10.034Z,13.00
2018-11-13T05:34:38.708Z,12.90
2018-11-13T05:37:07.253Z,12.90
2018-11-13T05:39:35.916Z,12.80
2018-11-13T05:42:04.753Z,12.90
2018-11-13T05:44:33.181Z,12.80
2018-11-13T05:47:01.710Z,12.70
2018-11-13T05:49:30.094Z,12.70
2018-11-13T05:51:58.655Z,12.60
2018-11-13T05:54:27.104Z,12.80
2018-11-13T05:56:55.607Z,12.80
2018-11-13T05:59:24.012Z,12.50
2018-11-13T06:01:52.522Z,12.40
2018-11-13T06:04:20.989Z,12.50
2018-11-13T06:06:49.421Z,12.50
2018-11-13T06:09:17.914Z,12.40
2018-11-13T06:11:46.398Z,12.40
2018-11-13T06:14:14.932Z,12.40
2018-11-13T06:16:43.349Z,12.50
2018-11-13T06:19:11.781Z,12.50
2018-11-13T06:21:40.257Z,12.60
2018-11-13T06:24:08.765Z,12.70
2018-11-13T06:26:37.210Z,12.80
2018-11-13T06:29:06.213Z,12.90
2018-11-13T06:31:34.629Z,12.90
2018-11-13T06:34:03.076Z,12.80
2018-11-13T06:36:31.479Z,12.70
2018-11-13T06:38:59.956Z,12.50
2018-11-13T06:41:28.465Z,12.60
2018-11-13T06:43:56.912Z,12.40
2018-11-13T06:46:25.335Z,12.10
2018-11-13T06:48:53.859Z,12.20
2018-11-13T06:51:22.365Z,12.10
2018-11-13T06:54:01.812Z,12.10
2018-11-13T06:56:30.393Z,12.10
2018-11-13T06:58:59.022Z,12.20
2018-11-13T07:01:28.575Z,12.30
2018-11-13T07:03:57.114Z,12.20
2018-11-13T07:06:27.033Z,12.20
2018-11-13T07:08:55.654Z,12.40
2018-11-13T07:11:25.306Z,12.30
2018-11-13T07:13:53.768Z,12.30
2018-11-13T07:16:22.184Z,12.40
2018-11-13T07:18:50.781Z,12.40
2018-11-13T07:21:19.245Z,12.40
2018-11-13T07:23:47.689Z,12.50
2018-11-13T07:26:16.158Z,12.40
2018-11-13T07:28:44.614Z,12.50
2018-11-13T07:31:13.075Z,12.50
2018-11-13T07:33:41.550Z,12.50
2018-11-13T07:36:09.917Z,12.60
2018-11-13T07:38:38.339Z,12.60
2018-11-13T07:41:06.895Z,12.80
2018-11-13T07:43:35.342Z,12.70
2018-11-13T07:46:03.857Z,12.70
2018-11-13T07:48:32.336Z,12.60
2018-11-13T07:51:00.897Z,12.80
2018-11-13T07:53:29.304Z,12.50
2018-11-13T07:55:57.713Z,12.50
2018-11-13T07:58:29.445Z,12.70
2018-11-13T08:00:58.097Z,12.70
2018-11-13T08:03:34.174Z,12.70
2018-11-13T08:06:03.272Z,12.80
2018-11-13T08:08:31.728Z,12.80
2018-11-13T08:11:00.927Z,12.70
2018-11-13T08:13:29.361Z,12.80
2018-11-13T08:15:57.966Z,12.70
2018-11-13T08:18:26.449Z,12.60
2018-11-13T08:20:54.912Z,12.80
2018-11-13T08:23:23.307Z,12.90
2018-11-13T08:25:51.679Z,12.80
2018-11-13T08:28:20.156Z,12.70
2018-11-13T08:30:48.558Z,12.80
2018-11-13T08:33:16.996Z,12.90
2018-11-13T08:35:45.494Z,13.00
2018-11-13T08:38:13.887Z,13.00
2018-11-13T08:40:42.356Z,13.00
2018-11-13T08:43:10.879Z,13.00
2018-11-13T08:45:39.373Z,12.90
2018-11-13T08:48:07.778Z,12.90
2018-11-13T08:50:36.283Z,12.90
2018-11-13T08:53:05.163Z,12.90
2018-11-13T08:55:33.607Z,12.80
2018-11-13T08:58:02.022Z,12.90
2018-11-13T09:00:30.469Z,12.90
2018-11-13T09:02:58.875Z,12.90
2018-11-13T09:05:27.837Z,13.00
2018-11-13T09:07:56.225Z,13.00
2018-11-13T09:10:24.679Z,13.00
2018-11-13T09:12:53.075Z,13.00
2018-11-13T09:15:22.179Z,13.00
2018-11-13T09:17:50.795Z,12.90
2018-11-13T09:20:20.819Z,12.70
2018-11-13T09:37:10.624Z,13.00
2018-11-13T09:39:39.089Z,12.90
2018-11-13T09:42:07.515Z,12.90
2018-11-13T09:44:35.991Z,12.90
2018-11-13T09:47:04.419Z,12.90
2018-11-13T09:49:32.972Z,12.90
2018-11-13T09:52:01.404Z,12.80
2018-11-13T09:54:29.828Z,12.90
2018-11-13T09:56:58.284Z,13.00
2018-11-13T09:59:26.715Z,12.80
2018-11-13T10:01:55.690Z,12.90
2018-11-13T10:04:24.283Z,12.90
2018-11-13T10:06:52.090Z,12.80
2018-11-13T10:09:20.456Z,12.90
2018-11-13T10:11:48.917Z,12.80
2018-11-13T10:14:17.330Z,12.90
2018-11-13T10:16:45.742Z,13.00
2018-11-13T10:19:14.168Z,13.00
2018-11-13T10:21:42.588Z,13.00
2018-11-13T10:24:11.017Z,13.10
2018-11-13T10:26:39.452Z,12.90
2018-11-13T10:29:07.868Z,12.90
2018-11-13T10:31:36.291Z,12.90
2018-11-13T10:34:05.373Z,12.90
2018-11-13T10:36:33.848Z,12.90
2018-11-13T10:39:02.291Z,12.90
2018-11-13T10:41:30.836Z,13.00
2018-11-13T10:43:59.203Z,13.10
2018-11-13T10:46:27.686Z,13.20
2018-11-13T10:48:56.137Z,13.20
2018-11-13T10:51:24.589Z,13.20
2018-11-13T10:53:52.999Z,13.20
2018-11-13T10:56:21.459Z,13.30
2018-11-13T10:58:49.935Z,13.30
2018-11-13T11:01:23.568Z,13.30
2018-11-13T11:04:00.889Z,13.30
2018-11-13T11:06:32.236Z,13.20
2018-11-13T11:09:00.648Z,13.20
2018-11-13T11:11:29.198Z,13.20
2018-11-13T11:13:57.797Z,13.20
2018-11-13T11:16:26.017Z,13.10
2018-11-13T11:18:54.505Z,13.20
2018-11-13T11:21:22.879Z,13.10
2018-11-13T11:23:51.359Z,13.00
2018-11-13T11:26:19.799Z,13.10
2018-11-13T11:28:48.264Z,13.10
2018-11-13T11:31:16.687Z,13.10
2018-11-13T11:33:45.070Z,13.10
2018-11-13T11:36:13.508Z,13.00
2018-11-13T11:38:42.058Z,13.00
2018-11-13T11:41:10.404Z,13.00
2018-11-13T11:43:38.798Z,13.10
2018-11-13T11:46:07.326Z,13.00
2018-11-13T11:48:35.775Z,13.10
2018-11-13T11:51:04.289Z,13.20
2018-11-13T11:53:32.806Z,13.10
2018-11-13T11:56:01.243Z,13.20
2018-11-13T11:58:29.725Z,13.20
2018-11-13T12:00:58.132Z,13.20
2018-11-13T12:03:26.550Z,13.20
2018-11-13T12:05:55.046Z,13.20
2018-11-13T12:08:23.544Z,13.30
2018-11-13T12:10:52.127Z,13.40
2018-11-13T12:13:20.562Z,13.40
2018-11-13T12:15:48.995Z,13.30
2018-11-13T12:18:17.532Z,13.30
2018-11-13T12:20:46.058Z,13.40
2018-11-13T12:23:14.573Z,13.50
2018-11-13T12:25:43.090Z,13.40
2018-11-13T12:28:11.584Z,13.50
2018-11-13T12:30:40.041Z,13.70
2018-11-13T12:33:08.534Z,13.80
2018-11-13T12:35:37.011Z,13.80
2018-11-13T12:38:05.642Z,14.00
2018-11-13T12:40:34.048Z,14.10
2018-11-13T12:43:02.472Z,14.10
2018-11-13T12:45:30.974Z,14.10
2018-11-13T12:47:59.487Z,14.30
2018-11-13T12:50:33.234Z,14.40
2018-11-13T12:53:01.686Z,14.40
2018-11-13T12:55:30.227Z,14.30
2018-11-13T12:57:58.791Z,14.50
2018-11-13T13:00:27.198Z,14.60
2018-11-13T13:02:55.755Z,14.60
2018-11-13T13:05:24.234Z,14.70
2018-11-13T13:07:52.684Z,14.70
2018-11-13T13:10:21.793Z,14.70
2018-11-13T13:12:50.336Z,14.70
2018-11-13T13:15:19.437Z,14.80
2018-11-13T13:17:48.062Z,14.90
2018-11-13T13:20:18.624Z,14.80
2018-11-13T13:22:47.994Z,14.90
2018-11-13T13:25:17.367Z,15.00
2018-11-13T13:27:45.918Z,14.90
2018-11-13T13:30:16.362Z,14.90
2018-11-13T13:32:45.280Z,15.00
2018-11-13T13:35:37.854Z,15.00
2018-11-13T13:38:07.571Z,14.90
2018-11-13T13:40:36.588Z,14.90
2018-11-13T13:43:05.480Z,14.80
2018-11-13T13:45:34.135Z,14.70
2018-11-13T13:48:02.705Z,14.80
2018-11-13T13:50:31.222Z,14.60
2018-11-13T13:53:04.608Z,14.60
2018-11-13T13:55:33.136Z,14.70
2018-11-13T13:58:01.666Z,14.80
2018-11-13T14:00:30.407Z,14.90
2018-11-13T14:02:59.062Z,14.80
2018-11-13T14:05:27.566Z,14.60
2018-11-13T14:07:56.106Z,14.80
2018-11-13T14:10:24.690Z,14.70
2018-11-13T14:12:53.227Z,14.60
2018-11-13T14:15:21.859Z,14.60
2018-11-13T14:17:50.319Z,14.50
2018-11-13T14:20:20.016Z,14.50
2018-11-13T14:22:48.624Z,14.50
2018-11-13T14:25:17.181Z,14.40
2018-11-13T14:27:46.144Z,14.40
2018-11-13T14:30:17.522Z,14.20
2018-11-13T14:32:47.660Z,14.30
2018-11-13T14:35:16.520Z,14.30
2018-11-13T14:37:45.017Z,14.40
2018-11-13T14:40:17.422Z,14.20
2018-11-13T14:42:46.388Z,14.10
2018-11-13T14:45:15.345Z,14.20
2018-11-13T14:47:44.671Z,14.20
2018-11-13T14:50:15.490Z,14.30
2018-11-13T14:52:44.221Z,14.30
2018-11-13T14:55:15.298Z,14.20
2018-11-13T14:57:44.114Z,14.20
2018-11-13T15:00:15.001Z,14.20
2018-11-13T15:02:43.956Z,14.20
2018-11-13T15:05:13.504Z,14.00
2018-11-13T15:07:42.763Z,14.00
2018-11-13T15:10:14.368Z,14.00
2018-11-13T15:12:42.914Z,13.90
2018-11-13T15:15:11.758Z,14.00
2018-11-13T15:17:41.177Z,13.90
2018-11-13T15:20:13.684Z,13.90
2018-11-13T15:22:42.947Z,13.70
2018-11-13T15:25:13.083Z,13.80
2018-11-13T15:27:42.195Z,13.70
2018-11-13T15:30:20.083Z,13.70
2018-11-13T15:32:50.270Z,13.80
2018-11-13T15:35:18.860Z,13.70
2018-11-13T15:37:47.321Z,13.60
2018-11-13T15:40:17.722Z,13.50
2018-11-13T15:42:46.371Z,13.60
2018-11-13T15:45:15.890Z,13.60
2018-11-13T15:47:45.140Z,13.50
2018-11-13T15:50:17.887Z,13.50
2018-11-13T15:52:46.344Z,13.50
2018-11-13T15:55:15.255Z,13.50
2018-11-13T15:57:44.262Z,13.50
2018-11-13T16:00:19.930Z,13.50
2018-11-13T16:02:48.371Z,13.40
2018-11-13T16:05:22.446Z,13.40
2018-11-13T16:07:51.936Z,13.30
2018-11-13T16:10:20.388Z,13.20
2018-11-13T16:12:49.231Z,12.90
2018-11-13T16:15:19.443Z,12.80
2018-11-13T16:17:48.341Z,12.90
2018-11-13T16:20:16.824Z,13.10
2018-11-13T16:22:45.260Z,12.90
2018-11-13T16:25:13.893Z,12.90
2018-11-13T16:27:42.401Z,12.80
2018-11-13T16:30:13.199Z,12.70
2018-11-13T16:32:42.365Z,13.00
2018-11-13T16:35:12.064Z,12.90
2018-11-13T16:37:41.789Z,12.70
2018-11-13T16:40:12.835Z,12.80
2018-11-13T16:42:41.628Z,12.70
2018-11-13T16:45:11.343Z,12.80
2018-11-13T16:47:40.028Z,12.90
2018-11-13T16:50:11.861Z,12.90
2018-11-13T16:52:40.341Z,12.60
2018-11-13T16:55:09.074Z,12.70
2018-11-13T16:57:37.528Z,12.70
2018-11-13T17:00:09.511Z,12.60
2018-11-13T17:02:38.107Z,12.60
2018-11-13T17:05:08.741Z,12.70
2018-11-13T17:07:37.362Z,12.60
2018-11-13T17:10:08.646Z,12.70
2018-11-13T17:12:37.230Z,12.60
2018-11-13T17:15:07.818Z,12.70
2018-11-13T17:20:15.465Z,12.70
2018-11-13T17:22:44.435Z,12.60
2018-11-13T17:25:17.762Z,12.60
2018-11-13T17:28:12.021Z,12.40
2018-11-13T17:30:41.433Z,12.40
2018-11-13T17:33:10.738Z,12.20
2018-11-13T17:35:39.377Z,12.10
2018-11-13T17:38:08.056Z,12.00
2018-11-13T17:46:34.922Z,12.00
2018-11-13T17:49:21.774Z,11.90
2018-11-13T17:52:21.434Z,12.00
2018-11-13T17:58:12.635Z,11.90
2018-11-13T18:00:46.319Z,11.90
2018-11-13T18:03:18.993Z,11.80
2018-11-13T18:05:56.842Z,11.80
2018-11-13T18:08:31.552Z,11.70
2018-11-13T18:11:03.989Z,11.60
2018-11-13T18:13:38.547Z,11.80
2018-11-13T18:16:14.069Z,11.70
2018-11-13T18:18:44.787Z,11.70
2018-11-13T18:21:21.260Z,11.60
2018-11-13T18:23:50.515Z,11.40
2018-11-13T18:26:19.484Z,11.50
2018-11-13T18:28:48.581Z,11.40
2018-11-13T18:31:17.452Z,11.50
2018-11-13T18:33:46.405Z,11.50
2018-11-13T18:36:15.378Z,11.30
2018-11-13T18:38:44.572Z,11.30
2018-11-13T18:41:13.600Z,11.30
2018-11-13T18:43:42.772Z,11.40
2018-11-13T18:46:11.946Z,11.40
2018-11-13T18:48:41.061Z,11.40
2018-11-13T18:51:10.404Z,11.10
2018-11-13T18:53:39.378Z,11.00
2018-11-13T18:56:08.638Z,10.90
2018-11-13T18:58:37.909Z,11.00
2018-11-13T19:01:08.011Z,11.00
2018-11-13T19:03:37.102Z,11.00
2018-11-13T19:06:06.206Z,10.90
2018-11-13T19:08:35.196Z,11.00
2018-11-13T19:11:04.893Z,11.00
2018-11-13T19:13:33.806Z,11.00
2018-11-13T19:16:05.293Z,11.10
2018-11-13T19:18:34.401Z,10.70
2018-11-13T19:21:03.411Z,10.70
2018-11-13T19:23:32.349Z,10.40
2018-11-13T19:26:01.395Z,10.30
2018-11-13T19:28:30.411Z,10.30
2018-11-13T19:30:59.648Z,10.20
2018-11-13T19:33:28.608Z,10.20
2018-11-13T19:35:57.626Z,10.00
2018-11-13T19:38:26.522Z,10.00
2018-11-13T19:40:55.480Z,9.90
2018-11-13T19:43:24.502Z,10.10
2018-11-13T19:45:53.571Z,10.30
2018-11-13T19:48:22.633Z,10.30
2018-11-13T19:50:51.587Z,10.10
2018-11-13T19:53:20.502Z,10.00
2018-11-13T19:55:49.515Z,10.00
2018-11-13T19:58:18.404Z,9.80
2018-11-13T20:00:47.391Z,10.00
2018-11-13T20:03:16.663Z,9.90
2018-11-13T20:05:45.636Z,9.90
2018-11-13T20:08:14.701Z,10.00
2018-11-13T20:10:43.751Z,9.80
2018-11-13T20:13:12.643Z,9.60
2018-11-13T20:15:41.668Z,9.50
2018-11-13T20:18:10.603Z,9.50
2018-11-13T20:20:39.602Z,9.60
2018-11-13T20:23:09.886Z,9.70
2018-11-13T20:25:39.025Z,9.80
2018-11-13T20:28:07.935Z,9.90
2018-11-13T20:30:39.500Z,9.90
2018-11-13T20:33:10.653Z,9.80
2018-11-13T20:35:39.587Z,9.90
2018-11-13T20:38:08.829Z,9.80
2018-11-13T20:40:38.295Z,9.70
2018-11-13T20:43:09.585Z,9.30
2018-11-13T20:45:38.468Z,9.20
2018-11-13T20:48:07.598Z,9.20
2018-11-13T20:50:36.653Z,9.20
2018-11-13T20:53:05.723Z,9.30
2018-11-13T20:55:34.560Z,9.50
2018-11-13T20:58:03.479Z,9.60
2018-11-13T21:00:33.703Z,9.60
2018-11-13T21:03:02.675Z,9.70
2018-11-13T21:05:31.653Z,9.60
2018-11-13T21:08:00.563Z,9.70
2018-11-13T21:10:32.950Z,9.70
2018-11-13T21:13:02.586Z,9.60
2018-11-13T21:15:31.701Z,9.40
2018-11-13T21:18:00.759Z,9.30
2018-11-13T21:20:29.726Z,9.20
2018-11-13T21:22:58.717Z,9.20
2018-11-13T21:25:28.098Z,9.30
2018-11-13T21:27:58.841Z,9.20
2018-11-13T21:30:28.016Z,9.20
2018-11-13T21:32:57.069Z,9.20
2018-11-13T21:35:25.985Z,9.30
2018-11-13T21:37:56.365Z,9.40
2018-11-13T21:40:26.719Z,9.50
2018-11-13T21:42:56.268Z,9.50
2018-11-13T21:45:26.195Z,9.30
2018-11-13T21:47:55.050Z,9.20
2018-11-13T21:50:26.526Z,9.30
2018-11-13T21:52:55.271Z,9.10
2018-11-13T21:55:25.535Z,9.10
2018-11-13T21:57:54.446Z,9.20
2018-11-13T22:00:25.667Z,9.20
2018-11-13T22:02:59.070Z,9.20
2018-11-13T22:05:29.220Z,9.20
2018-11-13T22:07:58.231Z,9.10
2018-11-13T22:10:27.143Z,9.20
2018-11-13T22:12:56.133Z,9.20
2018-11-13T22:15:26.325Z,9.10
2018-11-13T22:17:55.287Z,9.20
2018-11-13T22:20:25.088Z,9.20
2018-11-13T22:22:55.542Z,9.20
2018-11-13T22:25:25.412Z,9.00
2018-11-13T22:27:55.643Z,9.20
2018-11-13T22:30:25.843Z,9.20
2018-11-13T22:32:54.792Z,9.10
2018-11-13T22:35:23.947Z,9.30
2018-11-13T22:37:53.014Z,9.40
2018-11-13T22:40:23.205Z,9.40
2018-11-13T22:42:52.215Z,9.50
2018-11-13T22:45:28.580Z,9.50
2018-11-13T22:47:58.001Z,9.50
2018-11-13T22:50:29.265Z,9.60
2018-11-13T22:52:58.369Z,9.50
2018-11-13T22:55:27.440Z,9.50
2018-11-13T22:57:57.339Z,9.70
2018-11-13T23:00:43.029Z,9.60
2018-11-13T23:03:13.403Z,9.50
2018-11-13T23:05:42.852Z,9.50
2018-11-13T23:08:13.177Z,9.30
2018-11-13T23:10:42.126Z,9.40
2018-11-13T23:13:11.121Z,9.40
2018-11-13T23:15:40.314Z,9.30
2018-11-13T23:18:12.656Z,9.20
2018-11-13T23:20:41.592Z,9.20
2018-11-13T23:23:10.639Z,9.30
2018-11-13T23:25:39.513Z,9.20
2018-11-13T23:28:08.567Z,9.20
2018-11-13T23:30:37.453Z,9.20
2018-11-13T23:33:07.056Z,9.20
2018-11-13T23:35:35.507Z,9.00
2018-11-13T23:38:04.446Z,9.00
2018-11-13T23:40:33.505Z,9.00
2018-11-13T23:43:02.390Z,9.00
2018-11-13T23:45:31.308Z,8.90
2018-11-13T23:48:00.582Z,8.80
2018-11-13T23:50:29.106Z,8.60
2018-11-13T23:52:58.080Z,8.50
2018-11-13T23:55:26.979Z,8.60
2018-11-13T23:57:55.925Z,8.60
